• Join FlightAware (Why Join?)
  • Login
  • US Flag 
09:32AM EDT


 

Airport Tracker/Info


-or-


 

Live Flight TrackerFlight Track Log ✈ UPS1307 ✈ 26-Aug-2013 ✈ KATL - KPHL

Flight Track Log - Related Links

Times and Time Zones

All times are in EDT time to prevent confusion due to time zone crossing. See the UPS1307 flight status page for this flight to view local times or setup timezone preferences in your user account.

Time Position Orientation Groundspeed Altitude Reporting Facility
EDT Latitude Longitude Course Direction KTS MPH feet Rate Location/Type
10:39PM 33.6470 -84.4090 90° East 163 188 1,700  Level FlightAware
10:40PM 33.6480 -84.3880 87° East 190 219 2,300 2,100 Climbing FlightAware
10:40PM 33.6500 -84.3470 87° East 219 252 3,700 2,340 Climbing FlightAware
10:41PM 33.6560 -84.3220 74° East 237 273 4,500 2,100 Climbing FlightAware
10:41PM 33.6620 -84.2950 75° East 262 302 5,100 2,580 Climbing FlightAware
10:41PM 33.6690 -84.2600 76° East 268 308 6,400 2,880 Climbing FlightAware
10:42PM 33.6750 -84.2300 76° East 278 320 7,300 2,640 Climbing FlightAware
10:42PM 33.6800 -84.2030 77° East 282 325 8,100 2,700 Climbing FlightAware
10:42PM 33.6880 -84.1690 74° East 286 329 9,100 2,520 Climbing FlightAware
10:43PM 33.6970 -84.1440 67° East 289 333 9,800 1,860 Climbing FlightAware
10:43PM 33.7120 -84.1000 68° East 309 356 10,600 1,380 Climbing FlightAware
10:44PM 33.7370 -84.0330 66° East 344 396 11,400 960 Climbing FlightAware
10:44PM 33.7770 -83.9670 54° Northeast 353 406 12,000 1,440 Climbing FlightAware
10:45PM 33.8220 -83.8920 54° Northeast 389 448 13,500 1,380 Climbing FlightAware
10:46PM 33.8620 -83.8280 53° Northeast 391 450 13,900 1,920 Climbing FlightAware
10:46PM 33.9030 -83.7590 54° Northeast 397 457 16,000 2,820 Climbing FlightAware
10:47PM 33.9430 -83.6930 54° Northeast 403 464 17,200 1,980 Climbing FlightAware
10:48PM 33.9790 -83.6370 52° Northeast 410 472 18,300 2,100 Climbing FlightAware
10:48PM 34.0220 -83.5700 52° Northeast 417 480 19,600 2,040 Climbing FlightAware
10:49PM 34.0640 -83.5040 52° Northeast 423 487 20,800 1,860 Climbing FlightAware
10:49PM 34.1090 -83.4320 53° Northeast 431 496 21,900 1,800 Climbing FlightAware
10:50PM 34.1490 -83.3680 53° Northeast 435 501 22,900 1,740 Climbing FlightAware
10:50PM 34.1920 -83.3000 53° Northeast 441 507 23,900 1,620 Climbing FlightAware
10:51PM 34.2370 -83.2270 53° Northeast 446 513 24,900 1,560 Climbing FlightAware
10:51PM 34.2485 -83.2096 51° Northeast 448 516 25,100 1,500 Climbing FlightAware ADS-B
10:52PM 34.2870 -83.1481 53° Northeast 453 521 25,900 1,440 Climbing FlightAware ADS-B
10:52PM 34.3258 -83.0858 53° Northeast 458 527 26,600 1,320 Climbing FlightAware ADS-B
10:53PM 34.3654 -83.0221 53° Northeast 465 535 27,300 1,200 Climbing FlightAware ADS-B
10:53PM 34.4050 -82.9583 53° Northeast 471 542 27,900 1,200 Climbing FlightAware ADS-B
10:54PM 34.4472 -82.8901 53° Northeast 473 544 28,600 1,560 Climbing FlightAware ADS-B
10:54PM 34.4994 -82.8056 53° Northeast 473 544 29,800 1,680 Climbing FlightAware ADS-B
10:55PM 34.5480 -82.7267 53° Northeast 470 541 30,800 960 Climbing FlightAware ADS-B
10:56PM 34.5950 -82.6510 53° Northeast 471 542 31,000 240 Climbing FlightAware
10:56PM 34.6112 -82.6249 53° Northeast 472 543 31,000  Level FlightAware ADS-B
10:57PM 34.6894 -82.5055 51° Northeast 478 550 31,000  Level FlightAware ADS-B
10:57PM 34.7355 -82.4347 52° Northeast 478 550 31,000  Level FlightAware ADS-B
10:58PM 34.7771 -82.3705 52° Northeast 478 550 31,000  Level FlightAware ADS-B
10:58PM 34.8182 -82.3067 52° Northeast 477 549 31,000  Level FlightAware ADS-B
10:59PM 34.8617 -82.2389 52° Northeast 477 549 31,000  Level FlightAware ADS-B
10:59PM 34.9027 -82.1750 52° Northeast 477 549 31,000  Level FlightAware ADS-B
11:00PM 34.9434 -82.1115 52° Northeast 477 549 31,000  Level FlightAware ADS-B
11:00PM 34.9846 -82.0473 52° Northeast 476 548 31,000  Level FlightAware ADS-B
11:01PM 35.0254 -81.9834 52° Northeast 475 547 31,000  Level FlightAware ADS-B
11:01PM 35.0661 -81.9195 52° Northeast 474 545 31,000  Level FlightAware ADS-B
11:02PM 35.1073 -81.8548 52° Northeast 474 545 31,000  Level FlightAware ADS-B
11:02PM 35.1482 -81.7904 52° Northeast 474 545 31,000  Level FlightAware ADS-B
11:03PM 35.1887 -81.7264 52° Northeast 474 545 31,000  Level FlightAware ADS-B
11:04PM 35.2304 -81.6606 52° Northeast 474 545 31,000  Level FlightAware ADS-B
11:04PM 35.2711 -81.5960 52° Northeast 474 545 31,000  Level FlightAware ADS-B
11:05PM 35.3116 -81.5318 52° Northeast 475 547 31,000  Level FlightAware ADS-B
11:05PM 35.3552 -81.4626 52° Northeast 475 547 31,000  Level FlightAware ADS-B
11:06PM 35.3982 -81.3943 52° Northeast 475 547 31,000  Level FlightAware ADS-B
11:06PM 35.4394 -81.3289 52° Northeast 475 547 31,000  Level FlightAware ADS-B
11:07PM 35.4900 -81.2490 52° Northeast 476 548 31,000  Level FlightAware
11:07PM 35.5370 -81.1730 53° Northeast 476 548 31,000  Level FlightAware
11:08PM 35.5820 -81.1020 52° Northeast 477 549 31,000  Level FlightAware
11:09PM 35.6400 -81.0080 53° Northeast 478 550 31,000  Level FlightAware
11:09PM 35.6820 -80.9420 52° Northeast 479 551 31,000  Level FlightAware
11:10PM 35.7340 -80.8580 53° Northeast 479 551 31,000  Level FlightAware
11:10PM 35.7750 -80.7920 53° Northeast 479 551 31,000  Level FlightAware
11:11PM 35.8290 -80.7080 52° Northeast 479 551 31,000  Level FlightAware
11:12PM 35.8720 -80.6400 52° Northeast 479 551 31,000  Level FlightAware
11:12PM 35.9250 -80.5510 54° Northeast 480 552 31,000  Level FlightAware
11:13PM 35.9820 -80.4590 53° Northeast 481 554 31,000  Level FlightAware
11:14PM 36.0240 -80.3930 52° Northeast 481 554 31,000  Level FlightAware
11:14PM 36.0660 -80.3260 52° Northeast 481 554 31,000  Level FlightAware
11:15PM 36.1100 -80.2480 55° Northeast 540 621 31,000  Level FlightAware
11:18PM 36.3890 -79.7810 53° Northeast 484 557 31,000  Level FlightAware
11:19PM 36.4400 -79.6980 53° Northeast 484 557 31,000  Level FlightAware
11:19PM 36.4920 -79.6080 54° Northeast 486 559 31,000  Level FlightAware
11:20PM 36.5370 -79.5340 53° Northeast 485 558 31,000  Level FlightAware
11:20PM 36.5860 -79.4520 53° Northeast 487 560 31,000  Level FlightAware
11:21PM 36.6340 -79.3700 54° Northeast 487 560 31,000  Level FlightAware
11:22PM 36.6810 -79.2920 53° Northeast 487 560 31,000  Level FlightAware
11:22PM 36.7300 -79.2080 54° Northeast 487 560 31,000  Level FlightAware
11:23PM 36.7730 -79.1350 54° Northeast 486 559 31,000  Level FlightAware
11:23PM 36.8230 -79.0510 53° Northeast 487 560 31,000  Level FlightAware
11:24PM 36.8690 -78.9780 52° Northeast 488 562 31,000  Level FlightAware
11:24PM 36.9170 -78.9060 50° Northeast 490 564 31,000  Level FlightAware
11:25PM 36.9760 -78.8220 49° Northeast 493 567 31,000  Level FlightAware
11:26PM 37.0310 -78.7430 49° Northeast 494 568 31,000  Level FlightAware
11:26PM 37.0770 -78.6770 49° Northeast 496 571 31,000  Level FlightAware
11:27PM 37.1310 -78.5980 49° Northeast 497 572 31,000  Level FlightAware
11:27PM 37.1850 -78.5210 49° Northeast 499 574 31,000  Level FlightAware
11:28PM 37.2360 -78.4470 49° Northeast 499 574 31,000  Level FlightAware
11:29PM 37.2900 -78.3680 49° Northeast 501 577 31,000  Level FlightAware
11:29PM 37.3460 -78.2870 49° Northeast 501 577 31,000  Level FlightAware
11:30PM 37.4000 -78.2080 49° Northeast 499 574 31,000  Level FlightAware
11:30PM 37.4500 -78.1350 49° Northeast 500 575 31,000  Level FlightAware
11:31PM 37.5040 -78.0580 49° Northeast 500 575 31,000  Level FlightAware
11:31PM 37.5590 -77.9780 49° Northeast 499 574 31,000  Level FlightAware
11:32PM 37.6080 -77.9050 50° Northeast 500 575 31,000  Level FlightAware
11:33PM 37.6650 -77.8220 49° Northeast 500 575 31,000  Level FlightAware
11:33PM 37.7190 -77.7420 50° Northeast 501 577 31,000  Level FlightAware
11:34PM 37.7700 -77.6660 50° Northeast 502 578 31,000  Level FlightAware
11:34PM 37.8250 -77.5850 49° Northeast 502 578 31,000  Level FlightAware
11:35PM 37.8770 -77.5090 49° Northeast 502 578 31,000  Level FlightAware
11:36PM 37.9300 -77.4300 50° Northeast 502 578 31,000  Level FlightAware
11:36PM 37.9880 -77.3440 49° Northeast 503 579 31,000  Level FlightAware
11:37PM 38.0340 -77.2750 50° Northeast 505 581 31,000  Level FlightAware
11:37PM 38.0900 -77.1920 49° Northeast 505 581 31,000  Level FlightAware
11:38PM 38.1450 -77.1090 50° Northeast 503 579 31,000  Level FlightAware
11:39PM 38.1990 -77.0270 50° Northeast 501 577 31,000  Level FlightAware
11:39PM 38.2430 -76.9610 50° Northeast 501 577 31,000  Level FlightAware
11:40PM 38.2990 -76.8750 50° Northeast 501 577 31,000  Level FlightAware
11:40PM 38.3540 -76.7920 50° Northeast 500 575 31,000 -180 Level FlightAware
11:41PM 38.4060 -76.7130 50° Northeast 499 574 30,800 -1,200 Descending FlightAware
11:41PM 38.4550 -76.6390 50° Northeast 493 567 29,700 -2,940 Descending FlightAware
11:42PM 38.5070 -76.5590 50° Northeast 492 566 27,500 -3,360 Descending FlightAware
11:43PM 38.5580 -76.4800 50° Northeast 482 555 25,700 -3,120 Descending FlightAware
11:43PM 38.6050 -76.4080 50° Northeast 476 548 24,000 -3,120 Descending FlightAware
11:44PM 38.6550 -76.3300 51° Northeast 470 541 22,200 -3,000 Descending FlightAware
11:44PM 38.7050 -76.2540 50° Northeast 464 534 20,400 -2,880 Descending FlightAware
11:45PM 38.7530 -76.1800 50° Northeast 454 522 18,800 -2,880 Descending FlightAware
11:45PM 38.7950 -76.1140 51° Northeast 443 510 17,200 -2,820 Descending FlightAware
11:46PM 38.8380 -76.0460 51° Northeast 435 501 15,700 -1,860 Descending FlightAware
11:47PM 38.8680 -75.9540 67° East 433 498 15,000 -720 Descending FlightAware
11:47PM 38.8880 -75.8720 73° East 431 496 14,900 -120 Descending FlightAware
11:48PM 38.9300 -75.8020 52° Northeast 411 473 14,900 -600 Level FlightAware
11:48PM 38.9820 -75.7520 37° Northeast 389 448 14,200 -2,040 Descending FlightAware
11:49PM 39.0370 -75.7020 35° Northeast 405 466 12,500 -2,700 Descending FlightAware
11:50PM 39.0930 -75.6760 20° North 397 457 11,100 -1,680 Descending FlightAware
11:50PM 39.1580 -75.6680 North 362 417 10,600 -840 Descending FlightAware
11:51PM 39.2150 -75.6620 North 334 384 10,100 -780 Descending FlightAware
11:51PM 39.2470 -75.6580 North 327 376 9,900 -300 Descending FlightAware
11:51PM 39.2760 -75.6520 North 330 380 9,900 180 Level FlightAware
11:52PM 39.2880 -75.6460 21° North 330 380 10,000 300 Climbing FlightAware
11:52PM 39.3040 -75.6320 34° Northeast 335 386 10,000  Level FlightAware
11:52PM 39.3350 -75.5950 43° Northeast 337 388 10,000  Level FlightAware
11:52PM 39.3550 -75.5720 42° Northeast 336 387 10,000  Level FlightAware
11:53PM 39.3780 -75.5450 42° Northeast 336 387 10,000 -180 Level FlightAware
11:53PM 39.4000 -75.5190 42° Northeast 335 386 9,900  Descending FlightAware
11:54PM 39.4270 -75.4870 42° Northeast 334 384 10,000 120 Climbing FlightAware
11:54PM 39.4490 -75.4600 43° Northeast 334 384 10,000  Level FlightAware
11:54PM 39.4740 -75.4310 42° Northeast 333 383 10,000  Level FlightAware
11:55PM 39.4970 -75.4040 42° Northeast 334 384 10,000 -180 Level FlightAware
11:55PM 39.5190 -75.3780 42° Northeast 318 366 9,900 -420 Descending FlightAware
11:55PM 39.5460 -75.3460 42° Northeast 302 348 9,700 -720 Descending FlightAware
11:56PM 39.5660 -75.3230 42° Northeast 295 339 9,400 -1,260 Descending FlightAware
11:56PM 39.5860 -75.2990 43° Northeast 295 339 8,900 -1,380 Descending FlightAware
11:56PM 39.6060 -75.2760 42° Northeast 296 341 8,500 -1,380 Descending FlightAware
11:57PM 39.6300 -75.2460 44° Northeast 295 339 7,900 -1,380 Descending FlightAware
11:57PM 39.6520 -75.2200 42° Northeast 291 335 7,500 -1,140 Descending FlightAware
11:57PM 39.6690 -75.2000 42° Northeast 286 329 7,200 -1,140 Descending FlightAware
11:58PM 39.6840 -75.1820 43° Northeast 283 326 6,900 -1,080 Descending FlightAware
11:58PM 39.7020 -75.1610 42° Northeast 278 320 6,600 -1,200 Descending FlightAware
11:58PM 39.7220 -75.1350 45° Northeast 277 319 6,100 -1,260 Descending FlightAware
11:59PM 39.7400 -75.1130 43° Northeast 277 319 5,700 -1,440 Descending FlightAware
11:59PM 39.7620 -75.0860 43° Northeast 279 321 5,100 -1,440 Descending FlightAware
11:59PM 39.7810 -75.0610 45° Northeast 279 321 4,700 -1,200 Descending FlightAware
12:00AM 39.8030 -75.0330 44° Northeast 278 320 4,200 -1,380 Descending FlightAware
12:00AM 39.8150 -75.0200 40° Northeast 272 313 3,900 -1,500 Descending FlightAware
12:00AM 39.8240 -75.0150 23° Northeast 265 305 3,700 -1,500 Descending FlightAware
12:00AM 39.8340 -75.0130 North 257 296 3,500 -1,500 Descending FlightAware
12:00AM 39.8390 -75.0130 360° North 252 290 3,400 -1,500 Descending FlightAware
12:00AM 39.8470 -75.0150 349° North 246 283 3,200 -1,440 Descending FlightAware
12:01AM 39.8560 -75.0220 329° Northwest 241 277 3,000 -1,200 Descending FlightAware
12:01AM 39.8660 -75.0300 328° Northwest 241 277 2,800 -1,500 Descending FlightAware
12:01AM 39.8880 -75.0470 329° Northwest 236 272 2,200 -1,080 Descending FlightAware
12:01AM 39.9080 -75.0650 325° Northwest 201 231 2,000 -180 Descending FlightAware
12:02AM 39.9120 -75.0780 292° West 166 191 2,100 300 Climbing FlightAware
12:02AM 39.9020 -75.0980 237° Southwest 134 154 2,200  Climbing FlightAware
12:02AM 39.8970 -75.1030 217° Southwest 124 143 2,100 -600 Descending FlightAware
12:03AM 39.8950 -75.1090 247° West 114 131 2,000 -300 Descending FlightAware
12:03AM 39.8920 -75.1180 247° West 99 114 2,000 -540 Level FlightAware
12:03AM 39.8890 -75.1300 252° West 93 107 1,700 -480 Descending FlightAware
12:04AM 39.8870 -75.1460 261° West 92 106 1,600 -540 Descending FlightAware
12:04AM 39.8840 -75.1560 249° West 93 107 1,300 -600 Descending FlightAware
12:04AM 39.8820 -75.1690 259° West 94 108 1,200 -540 Descending FlightAware
12:05AM 39.8790 -75.1820 253° West 97 112 900 -720 Descending FlightAware
12:05AM 39.8770 -75.1940 258° West 103 119 700 -420 Descending FlightAware
12:05AM 39.8760 -75.2000 258° West 105 121 700  Level FlightAware
12:05AM 39.8750 -75.2020 237° Southwest 103 119 700 -300 Level FlightAware
12:06AM 39.8710 -75.2270 258° West 107 123 500 -300 Descending FlightAware